Terminal Aerodrome Forecast
Issued by NWS

Home | Current Version | Previous Version | Text Only | Print | Product List | Glossary Off
Versions: 1 2 3 4 5 6 7 8 9 10 11 12 13 14 15 16 17 18 19

000
FTUS43 KMPX 302300
TAFRNH
TAF
KRNH 302320Z 3100/3124 VRB02KT P6SM SCT030
      TEMPO 3100/3101 BKN030
     FM310900 13003KT 3/4SM BR BKN005 OVC012
     FM311400 15008KT 6SM BR SCT012 BKN200
     FM311800 17013G21KT P6SM SCT030 BKN100
     FM312300 17012KT P6SM VCTS SCT040CB BKN080=

USA.gov is the U.S. government's official web portal to all federal, state and local government web resources and services.